Time;durP1;ratioP1;P1;durP2;ratioP2;P2;SDS_P1;SDS_P2;PMS_P1;PMS_P2;Temp;Humidity;BMP_temperature;BMP_pressure;BME280_temperature;BME280_humidity;BME280_pressure;Samples;Min_cycle;Max_cycle;Signal;HPM_P1;HPM_P2
2022/04/24 00:00:00;;;;;;;5.6;5.2;;;;;;;12.7;99.1;100010;;;;
2022/04/24 00:01:00;;;;;;;5.6;5.2;;;;;;;12.7;99.1;100010;;;;
2022/04/24 00:02:00;;;;;;;5.6;5.2;;;;;;;12.7;99.8;100010;;;;
2022/04/24 00:03:00;;;;;;;5.6;5.2;;;;;;;12.7;99.8;100010;;;;
2022/04/24 00:04:00;;;;;;;5.6;5.2;;;;;;;12.6;100.0;100010;;;;
2022/04/24 00:05:00;;;;;;;5.6;5.2;;;;;;;12.6;100.0;100010;;;;
2022/04/24 00:06:00;;;;;;;5.6;5.2;;;;;;;12.6;100.0;100010;;;;
2022/04/24 00:07:00;;;;;;;5.6;5.2;;;;;;;12.6;100.0;100010;;;;
2022/04/24 00:08:00;;;;;;;5.5;5.0;;;;;;;12.6;100.0;100000;;;;
2022/04/24 00:09:00;;;;;;;5.5;5.0;;;;;;;12.6;100.0;100000;;;;
2022/04/24 00:10:00;;;;;;;5.5;5.0;;;;;;;12.5;100.0;100010;;;;
2022/04/24 00:11:00;;;;;;;5.5;5.0;;;;;;;12.5;100.0;100010;;;;
2022/04/24 00:12:00;;;;;;;5.5;5.0;;;;;;;12.5;100.0;100000;;;;
2022/04/24 00:13:00;;;;;;;5.5;5.0;;;;;;;12.5;100.0;100000;;;;
2022/04/24 00:14:00;;;;;;;5.5;5.0;;;;;;;12.5;100.0;100000;;;;
2022/04/24 00:15:00;;;;;;;5.5;5.0;;;;;;;12.5;100.0;100000;;;;
2022/04/24 00:16:00;;;;;;;5.5;5.0;;;;;;;12.4;100.0;100000;;;;
2022/04/24 00:17:00;;;;;;;5.5;5.0;;;;;;;12.4;100.0;100000;;;;
2022/04/24 00:18:00;;;;;;;5.5;5.0;;;;;;;12.4;100.0;100000;;;;
2022/04/24 00:19:00;;;;;;;5.5;5.0;;;;;;;12.4;100.0;100000;;;;
2022/04/24 00:20:00;;;;;;;5.5;5.0;;;;;;;12.3;100.0;100000;;;;
2022/04/24 00:21:00;;;;;;;5.5;5.0;;;;;;;12.3;100.0;100000;;;;
2022/04/24 00:22:00;;;;;;;5.5;5.0;;;;;;;12.3;100.0;100000;;;;
2022/04/24 00:23:00;;;;;;;5.5;5.0;;;;;;;12.3;100.0;100000;;;;
2022/04/24 00:24:00;;;;;;;5.5;5.0;;;;;;;12.2;100.0;100000;;;;
2022/04/24 00:25:00;;;;;;;5.5;5.0;;;;;;;12.2;100.0;100000;;;;
2022/04/24 00:26:00;;;;;;;5.5;5.0;;;;;;;12.3;100.0;100000;;;;
2022/04/24 00:27:00;;;;;;;5.5;5.0;;;;;;;12.3;100.0;100000;;;;
2022/04/24 00:28:02;;;;;;;6.5;6.0;;;;;;;12.2;100.0;99990;;;;
2022/04/24 00:29:00;;;;;;;6.5;6.0;;;;;;;12.2;100.0;99990;;;;
2022/04/24 00:30:00;;;;;;;6.5;6.0;;;;;;;12.2;100.0;99990;;;;
2022/04/24 00:31:00;;;;;;;6.5;6.0;;;;;;;12.2;100.0;99990;;;;
2022/04/24 00:32:00;;;;;;;6.5;6.0;;;;;;;12.1;100.0;99990;;;;
2022/04/24 00:33:00;;;;;;;6.5;6.0;;;;;;;12.1;100.0;99990;;;;
2022/04/24 00:34:00;;;;;;;6.5;6.0;;;;;;;12.1;100.0;99990;;;;
2022/04/24 00:35:00;;;;;;;6.5;6.0;;;;;;;12.1;100.0;99990;;;;
2022/04/24 00:36:00;;;;;;;6.5;6.0;;;;;;;12.2;100.0;99990;;;;
2022/04/24 00:37:00;;;;;;;6.5;6.0;;;;;;;12.2;100.0;99990;;;;
2022/04/24 00:38:00;;;;;;;6.5;6.0;;;;;;;12.1;100.0;99980;;;;
2022/04/24 00:39:00;;;;;;;6.5;6.0;;;;;;;12.1;100.0;99980;;;;
2022/04/24 00:40:00;;;;;;;6.5;6.0;;;;;;;12.2;100.0;99980;;;;
2022/04/24 00:41:00;;;;;;;6.5;6.0;;;;;;;12.2;100.0;99980;;;;
2022/04/24 00:42:00;;;;;;;6.5;6.0;;;;;;;12.1;100.0;99980;;;;
2022/04/24 00:43:00;;;;;;;6.5;6.0;;;;;;;12.1;100.0;99980;;;;
2022/04/24 00:44:00;;;;;;;6.5;6.0;;;;;;;12.0;100.0;99980;;;;
2022/04/24 00:45:00;;;;;;;6.5;6.0;;;;;;;12.0;100.0;99980;;;;
2022/04/24 00:46:10;;;;;;;6.5;6.0;;;;;;;12.1;100.0;99970;;;;
2022/04/24 00:47:04;;;;;;;5.8;5.3;;;;;;;12.1;100.0;99970;;;;
2022/04/24 00:48:00;;;;;;;5.8;5.3;;;;;;;12.1;100.0;99980;;;;
2022/04/24 00:49:00;;;;;;;5.8;5.3;;;;;;;12.1;100.0;99980;;;;
2022/04/24 00:50:00;;;;;;;5.8;5.3;;;;;;;12.1;100.0;99970;;;;
2022/04/24 00:51:00;;;;;;;5.8;5.3;;;;;;;12.1;100.0;99970;;;;
2022/04/24 00:52:00;;;;;;;5.8;5.3;;;;;;;12.1;100.0;99970;;;;
2022/04/24 00:53:00;;;;;;;5.8;5.3;;;;;;;12.1;100.0;99970;;;;
2022/04/24 00:54:00;;;;;;;5.8;5.3;;;;;;;12.0;100.0;99980;;;;
2022/04/24 00:55:00;;;;;;;5.8;5.3;;;;;;;12.0;100.0;99980;;;;
2022/04/24 00:56:00;;;;;;;5.8;5.3;;;;;;;11.9;100.0;99980;;;;
2022/04/24 00:57:00;;;;;;;5.8;5.3;;;;;;;11.9;100.0;99980;;;;
2022/04/24 00:58:00;;;;;;;5.8;5.3;;;;;;;11.9;100.0;99970;;;;
2022/04/24 00:59:02;;;;;;;5.8;5.3;;;;;;;11.9;100.0;99970;;;;
2022/04/24 01:00:00;;;;;;;5.8;5.3;;;;;;;11.8;100.0;99970;;;;
2022/04/24 01:01:00;;;;;;;5.8;5.3;;;;;;;11.8;100.0;99970;;;;
2022/04/24 01:02:03;;;;;;;5.8;5.3;;;;;;;11.9;100.0;99980;;;;
2022/04/24 01:03:00;;;;;;;5.8;5.3;;;;;;;11.9;100.0;99980;;;;
2022/04/24 01:04:01;;;;;;;5.8;5.3;;;;;;;11.9;100.0;99980;;;;
2022/04/24 01:05:00;;;;;;;5.8;5.3;;;;;;;11.9;100.0;99980;;;;
2022/04/24 01:06:00;;;;;;;5.8;5.3;;;;;;;11.9;100.0;99980;;;;
2022/04/24 01:07:00;;;;;;;6.0;5.5;;;;;;;11.9;100.0;99980;;;;
2022/04/24 01:08:00;;;;;;;6.0;5.5;;;;;;;11.9;100.0;99990;;;;
2022/04/24 01:09:10;;;;;;;6.0;5.5;;;;;;;11.9;100.0;99990;;;;
2022/04/24 01:10:00;;;;;;;6.0;5.5;;;;;;;11.8;100.0;99980;;;;
2022/04/24 01:11:00;;;;;;;6.0;5.5;;;;;;;11.8;100.0;99980;;;;
2022/04/24 01:12:00;;;;;;;6.0;5.5;;;;;;;11.8;100.0;99980;;;;
2022/04/24 01:13:00;;;;;;;6.0;5.5;;;;;;;11.8;100.0;99980;;;;
2022/04/24 01:14:00;;;;;;;6.0;5.5;;;;;;;11.8;100.0;99980;;;;
2022/04/24 01:15:00;;;;;;;6.0;5.5;;;;;;;11.8;100.0;99980;;;;
2022/04/24 01:16:00;;;;;;;6.0;5.5;;;;;;;11.8;100.0;99980;;;;
2022/04/24 01:17:01;;;;;;;6.0;5.5;;;;;;;11.8;100.0;99980;;;;
2022/04/24 01:18:00;;;;;;;6.0;5.5;;;;;;;11.8;100.0;99980;;;;
2022/04/24 01:19:00;;;;;;;6.0;5.5;;;;;;;11.8;100.0;99980;;;;
2022/04/24 01:20:00;;;;;;;6.0;5.5;;;;;;;11.7;100.0;99980;;;;
2022/04/24 01:21:08;;;;;;;6.0;5.5;;;;;;;11.7;100.0;99980;;;;
2022/04/24 01:22:00;;;;;;;6.0;5.5;;;;;;;11.7;100.0;99980;;;;
2022/04/24 01:23:00;;;;;;;6.0;5.5;;;;;;;11.7;100.0;99980;;;;
2022/04/24 01:24:00;;;;;;;6.0;5.5;;;;;;;11.8;100.0;99980;;;;
2022/04/24 01:25:00;;;;;;;6.0;5.5;;;;;;;11.8;100.0;99980;;;;
2022/04/24 01:26:00;;;;;;;6.0;5.5;;;;;;;11.6;100.0;99980;;;;
2022/04/24 01:27:00;;;;;;;6.7;6.1;;;;;;;11.6;100.0;99980;;;;
2022/04/24 01:28:05;;;;;;;6.7;6.1;;;;;;;11.5;100.0;99980;;;;
2022/04/24 01:29:00;;;;;;;6.7;6.1;;;;;;;11.5;100.0;99980;;;;
2022/04/24 01:30:00;;;;;;;6.7;6.1;;;;;;;11.5;100.0;99980;;;;
2022/04/24 01:31:00;;;;;;;6.7;6.1;;;;;;;11.5;100.0;99980;;;;
2022/04/24 01:32:00;;;;;;;6.7;6.1;;;;;;;11.5;100.0;99980;;;;
2022/04/24 01:33:00;;;;;;;6.7;6.1;;;;;;;11.5;100.0;99980;;;;
2022/04/24 01:34:00;;;;;;;6.7;6.1;;;;;;;11.5;100.0;99980;;;;
2022/04/24 01:35:00;;;;;;;6.7;6.1;;;;;;;11.5;100.0;99980;;;;
2022/04/24 01:36:00;;;;;;;6.7;6.1;;;;;;;11.4;100.0;99980;;;;
2022/04/24 01:37:00;;;;;;;6.7;6.1;;;;;;;11.4;100.0;99980;;;;
2022/04/24 01:38:00;;;;;;;6.7;6.1;;;;;;;11.4;100.0;99980;;;;
2022/04/24 01:39:00;;;;;;;6.7;6.1;;;;;;;11.4;100.0;99980;;;;
2022/04/24 01:40:00;;;;;;;6.7;6.1;;;;;;;11.4;100.0;99980;;;;
2022/04/24 01:41:00;;;;;;;6.7;6.1;;;;;;;11.4;100.0;99980;;;;
2022/04/24 01:42:00;;;;;;;6.7;6.1;;;;;;;11.2;100.0;99980;;;;
2022/04/24 01:43:00;;;;;;;6.7;6.1;;;;;;;11.2;100.0;99980;;;;
2022/04/24 01:44:00;;;;;;;6.7;6.1;;;;;;;11.3;100.0;99980;;;;
2022/04/24 01:45:00;;;;;;;6.7;6.1;;;;;;;11.3;100.0;99980;;;;
2022/04/24 01:46:00;;;;;;;6.7;6.1;;;;;;;11.3;100.0;99990;;;;
2022/04/24 01:47:00;;;;;;;6.7;6.2;;;;;;;11.3;100.0;99990;;;;
2022/04/24 01:48:00;;;;;;;6.7;6.2;;;;;;;11.3;100.0;99990;;;;
2022/04/24 01:49:00;;;;;;;6.7;6.2;;;;;;;11.3;100.0;99990;;;;
2022/04/24 01:50:00;;;;;;;6.7;6.2;;;;;;;11.3;100.0;99980;;;;
2022/04/24 01:51:00;;;;;;;6.7;6.2;;;;;;;11.3;100.0;99980;;;;
2022/04/24 01:52:00;;;;;;;6.7;6.2;;;;;;;11.3;100.0;99980;;;;
2022/04/24 01:53:00;;;;;;;6.7;6.2;;;;;;;11.3;100.0;99980;;;;
2022/04/24 01:54:00;;;;;;;6.7;6.2;;;;;;;11.3;100.0;99980;;;;
2022/04/24 01:55:00;;;;;;;6.7;6.2;;;;;;;11.3;100.0;99980;;;;
2022/04/24 01:56:01;;;;;;;6.7;6.2;;;;;;;11.1;100.0;99980;;;;
2022/04/24 01:57:00;;;;;;;6.7;6.2;;;;;;;11.1;100.0;99980;;;;
2022/04/24 01:58:00;;;;;;;6.7;6.2;;;;;;;11.1;100.0;99980;;;;
2022/04/24 01:59:00;;;;;;;6.7;6.2;;;;;;;11.1;100.0;99980;;;;
2022/04/24 02:00:00;;;;;;;6.7;6.2;;;;;;;11.1;100.0;99990;;;;
2022/04/24 02:01:00;;;;;;;6.7;6.2;;;;;;;11.1;100.0;99990;;;;
2022/04/24 02:02:00;;;;;;;6.7;6.2;;;;;;;11.1;100.0;99990;;;;
2022/04/24 02:03:00;;;;;;;6.7;6.2;;;;;;;11.1;100.0;99990;;;;
2022/04/24 02:04:00;;;;;;;6.7;6.2;;;;;;;11.2;100.0;99980;;;;
2022/04/24 02:05:00;;;;;;;6.7;6.2;;;;;;;11.2;100.0;99980;;;;
2022/04/24 02:06:00;;;;;;;6.7;6.2;;;;;;;11.2;100.0;99990;;;;
2022/04/24 02:07:00;;;;;;;7.3;6.7;;;;;;;11.2;100.0;99990;;;;
2022/04/24 02:08:00;;;;;;;7.3;6.7;;;;;;;11.1;100.0;99980;;;;
2022/04/24 02:09:00;;;;;;;7.3;6.7;;;;;;;11.1;100.0;99980;;;;
2022/04/24 02:10:00;;;;;;;7.3;6.7;;;;;;;11.2;100.0;99990;;;;
2022/04/24 02:11:00;;;;;;;7.3;6.7;;;;;;;11.2;100.0;99990;;;;
2022/04/24 02:12:00;;;;;;;7.3;6.7;;;;;;;11.1;100.0;99980;;;;
2022/04/24 02:13:00;;;;;;;7.3;6.7;;;;;;;11.1;100.0;99980;;;;
2022/04/24 02:14:00;;;;;;;7.3;6.7;;;;;;;11.1;100.0;99990;;;;
2022/04/24 02:15:00;;;;;;;7.3;6.7;;;;;;;11.1;100.0;99990;;;;
2022/04/24 02:16:00;;;;;;;7.3;6.7;;;;;;;11.1;100.0;99990;;;;
2022/04/24 02:17:00;;;;;;;7.3;6.7;;;;;;;11.1;100.0;99990;;;;
2022/04/24 02:18:00;;;;;;;7.3;6.7;;;;;;;11.1;100.0;99990;;;;
2022/04/24 02:19:00;;;;;;;7.3;6.7;;;;;;;11.1;100.0;99990;;;;
2022/04/24 02:20:00;;;;;;;7.3;6.7;;;;;;;11.1;100.0;99990;;;;
2022/04/24 02:21:00;;;;;;;7.3;6.7;;;;;;;11.1;100.0;99990;;;;
2022/04/24 02:22:00;;;;;;;7.3;6.7;;;;;;;11.1;100.0;99990;;;;
2022/04/24 02:23:00;;;;;;;7.3;6.7;;;;;;;11.1;100.0;99990;;;;
2022/04/24 02:24:00;;;;;;;7.3;6.7;;;;;;;11.0;100.0;99990;;;;
2022/04/24 02:25:00;;;;;;;7.3;6.7;;;;;;;11.0;100.0;99990;;;;
2022/04/24 02:26:00;;;;;;;7.3;6.7;;;;;;;11.0;100.0;99990;;;;
2022/04/24 02:27:00;;;;;;;8.2;7.5;;;;;;;11.0;100.0;99990;;;;
2022/04/24 02:28:00;;;;;;;8.2;7.5;;;;;;;11.0;100.0;99990;;;;
2022/04/24 02:29:00;;;;;;;8.2;7.5;;;;;;;11.0;100.0;99990;;;;
2022/04/24 02:30:00;;;;;;;8.2;7.5;;;;;;;10.9;100.0;99980;;;;
2022/04/24 02:31:00;;;;;;;8.2;7.5;;;;;;;10.9;100.0;99980;;;;
2022/04/24 02:32:00;;;;;;;8.2;7.5;;;;;;;10.9;100.0;99980;;;;
2022/04/24 02:33:00;;;;;;;8.2;7.5;;;;;;;10.9;100.0;99980;;;;
2022/04/24 02:34:00;;;;;;;8.2;7.5;;;;;;;10.8;100.0;99980;;;;
2022/04/24 02:35:00;;;;;;;8.2;7.5;;;;;;;10.8;100.0;99980;;;;
2022/04/24 02:36:00;;;;;;;8.2;7.5;;;;;;;10.7;100.0;99980;;;;
2022/04/24 02:37:00;;;;;;;8.2;7.5;;;;;;;10.7;100.0;99980;;;;
2022/04/24 02:38:00;;;;;;;8.2;7.5;;;;;;;10.6;100.0;99980;;;;
2022/04/24 02:39:00;;;;;;;8.2;7.5;;;;;;;10.6;100.0;99980;;;;
2022/04/24 02:40:00;;;;;;;8.2;7.5;;;;;;;10.5;100.0;99980;;;;
2022/04/24 02:41:00;;;;;;;8.2;7.5;;;;;;;10.5;100.0;99980;;;;
2022/04/24 02:42:00;;;;;;;8.2;7.5;;;;;;;10.6;100.0;99980;;;;
2022/04/24 02:43:00;;;;;;;8.2;7.5;;;;;;;10.6;100.0;99980;;;;
2022/04/24 02:44:00;;;;;;;8.2;7.5;;;;;;;10.6;100.0;99990;;;;
2022/04/24 02:45:00;;;;;;;8.2;7.5;;;;;;;10.6;100.0;99990;;;;
2022/04/24 02:46:00;;;;;;;8.2;7.5;;;;;;;10.5;100.0;99990;;;;
2022/04/24 02:47:00;;;;;;;8.7;7.9;;;;;;;10.5;100.0;99990;;;;
2022/04/24 02:48:02;;;;;;;8.7;7.9;;;;;;;10.6;100.0;99990;;;;
2022/04/24 02:49:00;;;;;;;8.7;7.9;;;;;;;10.6;100.0;99990;;;;
2022/04/24 02:50:00;;;;;;;8.7;7.9;;;;;;;10.5;100.0;99990;;;;
2022/04/24 02:51:00;;;;;;;8.7;7.9;;;;;;;10.5;100.0;99990;;;;
2022/04/24 02:52:00;;;;;;;8.7;7.9;;;;;;;10.5;100.0;99990;;;;
2022/04/24 02:53:00;;;;;;;8.7;7.9;;;;;;;10.5;100.0;99990;;;;
2022/04/24 02:54:00;;;;;;;8.7;7.9;;;;;;;10.3;100.0;99990;;;;
2022/04/24 02:55:02;;;;;;;8.7;7.9;;;;;;;10.3;100.0;99990;;;;
2022/04/24 02:56:00;;;;;;;8.7;7.9;;;;;;;10.4;100.0;99990;;;;
2022/04/24 02:57:00;;;;;;;8.7;7.9;;;;;;;10.4;100.0;99990;;;;
2022/04/24 02:58:00;;;;;;;8.7;7.9;;;;;;;10.3;100.0;99990;;;;
2022/04/24 02:59:00;;;;;;;8.7;7.9;;;;;;;10.3;100.0;99990;;;;
2022/04/24 03:00:00;;;;;;;8.7;7.9;;;;;;;10.3;100.0;100000;;;;
2022/04/24 03:01:00;;;;;;;8.7;7.9;;;;;;;10.3;100.0;100000;;;;
2022/04/24 03:02:00;;;;;;;8.7;7.9;;;;;;;10.3;100.0;100000;;;;
2022/04/24 03:03:00;;;;;;;8.7;7.9;;;;;;;10.3;100.0;100000;;;;
2022/04/24 03:04:00;;;;;;;8.7;7.9;;;;;;;10.4;100.0;100000;;;;
2022/04/24 03:05:00;;;;;;;8.7;7.9;;;;;;;10.4;100.0;100000;;;;
2022/04/24 03:06:00;;;;;;;8.7;7.9;;;;;;;10.2;100.0;100000;;;;
2022/04/24 03:07:00;;;;;;;9.5;8.7;;;;;;;10.2;100.0;100000;;;;
2022/04/24 03:08:00;;;;;;;9.5;8.7;;;;;;;10.2;100.0;100000;;;;
2022/04/24 03:09:00;;;;;;;9.5;8.7;;;;;;;10.2;100.0;100000;;;;
2022/04/24 03:10:00;;;;;;;9.5;8.7;;;;;;;10.2;100.0;100000;;;;
2022/04/24 03:11:00;;;;;;;9.5;8.7;;;;;;;10.2;100.0;100000;;;;
2022/04/24 03:12:00;;;;;;;9.5;8.7;;;;;;;10.2;100.0;100000;;;;
2022/04/24 03:13:00;;;;;;;9.5;8.7;;;;;;;10.2;100.0;100000;;;;
2022/04/24 03:14:00;;;;;;;9.5;8.7;;;;;;;10.1;100.0;100000;;;;
2022/04/24 03:15:00;;;;;;;9.5;8.7;;;;;;;10.1;100.0;100000;;;;
2022/04/24 03:16:00;;;;;;;9.5;8.7;;;;;;;10.1;100.0;99990;;;;
2022/04/24 03:17:00;;;;;;;9.5;8.7;;;;;;;10.1;100.0;99990;;;;
2022/04/24 03:18:00;;;;;;;9.5;8.7;;;;;;;10.1;100.0;100000;;;;
2022/04/24 03:19:00;;;;;;;9.5;8.7;;;;;;;10.1;100.0;100000;;;;
2022/04/24 03:20:03;;;;;;;9.5;8.7;;;;;;;10.0;100.0;100000;;;;
2022/04/24 03:21:00;;;;;;;9.5;8.7;;;;;;;10.0;100.0;100000;;;;
2022/04/24 03:22:00;;;;;;;9.5;8.7;;;;;;;10.0;100.0;99990;;;;
2022/04/24 03:23:00;;;;;;;9.5;8.7;;;;;;;10.0;100.0;99990;;;;
2022/04/24 03:24:00;;;;;;;9.5;8.7;;;;;;;10.0;100.0;99990;;;;
2022/04/24 03:25:00;;;;;;;9.5;8.7;;;;;;;10.0;100.0;99990;;;;
2022/04/24 03:26:00;;;;;;;9.5;8.7;;;;;;;9.9;100.0;100000;;;;
2022/04/24 03:27:00;;;;;;;9.5;8.6;;;;;;;9.9;100.0;100000;;;;
2022/04/24 03:28:00;;;;;;;9.5;8.6;;;;;;;9.9;100.0;100000;;;;
2022/04/24 03:29:00;;;;;;;9.5;8.6;;;;;;;9.9;100.0;100000;;;;
2022/04/24 03:30:00;;;;;;;9.5;8.6;;;;;;;9.9;100.0;100000;;;;
2022/04/24 03:31:00;;;;;;;9.5;8.6;;;;;;;9.9;100.0;100000;;;;
2022/04/24 03:32:00;;;;;;;9.5;8.6;;;;;;;10.0;100.0;100000;;;;
2022/04/24 03:33:00;;;;;;;9.5;8.6;;;;;;;10.0;100.0;100000;;;;
2022/04/24 03:34:00;;;;;;;9.5;8.6;;;;;;;10.0;100.0;100000;;;;
2022/04/24 03:35:00;;;;;;;9.5;8.6;;;;;;;10.0;100.0;100000;;;;
2022/04/24 03:36:00;;;;;;;9.5;8.6;;;;;;;10.1;100.0;100000;;;;
2022/04/24 03:37:00;;;;;;;9.5;8.6;;;;;;;10.1;100.0;100000;;;;
2022/04/24 03:38:00;;;;;;;9.5;8.6;;;;;;;10.1;100.0;100000;;;;
2022/04/24 03:39:00;;;;;;;9.5;8.6;;;;;;;10.1;100.0;100000;;;;
2022/04/24 03:40:00;;;;;;;9.5;8.6;;;;;;;9.9;100.0;100000;;;;
2022/04/24 03:41:00;;;;;;;9.5;8.6;;;;;;;9.9;100.0;100000;;;;
2022/04/24 03:42:00;;;;;;;9.5;8.6;;;;;;;9.8;100.0;100000;;;;
2022/04/24 03:43:00;;;;;;;9.5;8.6;;;;;;;9.8;100.0;100000;;;;
2022/04/24 03:44:00;;;;;;;9.5;8.6;;;;;;;9.9;100.0;100010;;;;
2022/04/24 03:45:00;;;;;;;9.5;8.6;;;;;;;9.9;100.0;100010;;;;
2022/04/24 03:46:00;;;;;;;9.5;8.6;;;;;;;9.8;100.0;100000;;;;
2022/04/24 03:47:00;;;;;;;9.3;8.6;;;;;;;9.8;100.0;100000;;;;
2022/04/24 03:48:00;;;;;;;9.3;8.6;;;;;;;9.9;100.0;100000;;;;
2022/04/24 03:49:00;;;;;;;9.3;8.6;;;;;;;9.9;100.0;100000;;;;
2022/04/24 03:50:00;;;;;;;9.3;8.6;;;;;;;9.8;100.0;100000;;;;
2022/04/24 03:51:01;;;;;;;9.3;8.6;;;;;;;9.8;100.0;100000;;;;
2022/04/24 03:52:00;;;;;;;9.3;8.6;;;;;;;9.8;100.0;100000;;;;
2022/04/24 03:53:00;;;;;;;9.3;8.6;;;;;;;9.8;100.0;100000;;;;
2022/04/24 03:54:00;;;;;;;9.3;8.6;;;;;;;9.8;100.0;100000;;;;
2022/04/24 03:55:00;;;;;;;9.3;8.6;;;;;;;9.8;100.0;100000;;;;
2022/04/24 03:56:00;;;;;;;9.3;8.6;;;;;;;9.8;100.0;100000;;;;
2022/04/24 03:57:00;;;;;;;9.3;8.6;;;;;;;9.8;100.0;100000;;;;
2022/04/24 03:58:00;;;;;;;9.3;8.6;;;;;;;9.7;100.0;100000;;;;
2022/04/24 03:59:00;;;;;;;9.3;8.6;;;;;;;9.7;100.0;100000;;;;
2022/04/24 04:00:00;;;;;;;9.3;8.6;;;;;;;9.7;100.0;100000;;;;
2022/04/24 04:01:00;;;;;;;9.3;8.6;;;;;;;9.7;100.0;100000;;;;
2022/04/24 04:02:00;;;;;;;9.3;8.6;;;;;;;9.6;100.0;100000;;;;
2022/04/24 04:03:00;;;;;;;9.3;8.6;;;;;;;9.6;100.0;100000;;;;
2022/04/24 04:04:00;;;;;;;9.3;8.6;;;;;;;9.5;100.0;100000;;;;
2022/04/24 04:05:00;;;;;;;9.3;8.6;;;;;;;9.5;100.0;100000;;;;
2022/04/24 04:06:00;;;;;;;9.3;8.6;;;;;;;9.5;100.0;100000;;;;
2022/04/24 04:07:00;;;;;;;9.9;9.0;;;;;;;9.5;100.0;100000;;;;
2022/04/24 04:08:00;;;;;;;9.9;9.0;;;;;;;9.7;100.0;100000;;;;
2022/04/24 04:09:00;;;;;;;9.9;9.0;;;;;;;9.7;100.0;100000;;;;
2022/04/24 04:10:00;;;;;;;9.9;9.0;;;;;;;9.6;100.0;100000;;;;
2022/04/24 04:11:00;;;;;;;9.9;9.0;;;;;;;9.6;100.0;100000;;;;
2022/04/24 04:12:01;;;;;;;9.9;9.0;;;;;;;9.6;100.0;100000;;;;
2022/04/24 04:13:04;;;;;;;9.9;9.0;;;;;;;9.6;100.0;100000;;;;
2022/04/24 04:14:00;;;;;;;9.9;9.0;;;;;;;9.6;100.0;100000;;;;
2022/04/24 04:15:01;;;;;;;9.9;9.0;;;;;;;9.6;100.0;100000;;;;
2022/04/24 04:16:00;;;;;;;9.9;9.0;;;;;;;9.6;100.0;100000;;;;
2022/04/24 04:17:05;;;;;;;9.9;9.0;;;;;;;9.6;100.0;100000;;;;
2022/04/24 04:18:00;;;;;;;9.9;9.0;;;;;;;9.6;100.0;100000;;;;
2022/04/24 04:19:00;;;;;;;9.9;9.0;;;;;;;9.6;100.0;100000;;;;
2022/04/24 04:20:00;;;;;;;9.9;9.0;;;;;;;9.5;100.0;100000;;;;
2022/04/24 04:21:00;;;;;;;9.9;9.0;;;;;;;9.5;100.0;100000;;;;
2022/04/24 04:22:00;;;;;;;9.9;9.0;;;;;;;9.5;100.0;100000;;;;
2022/04/24 04:23:00;;;;;;;9.9;9.0;;;;;;;9.5;100.0;100000;;;;
2022/04/24 04:24:00;;;;;;;9.9;9.0;;;;;;;9.4;100.0;100000;;;;
2022/04/24 04:25:00;;;;;;;9.9;9.0;;;;;;;9.4;100.0;100000;;;;
2022/04/24 04:26:00;;;;;;;9.9;9.0;;;;;;;9.5;100.0;100000;;;;
2022/04/24 04:27:00;;;;;;;10.2;9.3;;;;;;;9.5;100.0;100000;;;;
2022/04/24 04:28:00;;;;;;;10.2;9.3;;;;;;;9.4;100.0;100000;;;;
2022/04/24 04:29:00;;;;;;;10.2;9.3;;;;;;;9.4;100.0;100000;;;;
2022/04/24 04:30:00;;;;;;;10.2;9.3;;;;;;;9.4;100.0;100000;;;;
2022/04/24 04:31:00;;;;;;;10.2;9.3;;;;;;;9.4;100.0;100000;;;;
2022/04/24 04:32:00;;;;;;;10.2;9.3;;;;;;;9.3;100.0;100010;;;;
2022/04/24 04:33:00;;;;;;;10.2;9.3;;;;;;;9.3;100.0;100010;;;;
2022/04/24 04:34:00;;;;;;;10.2;9.3;;;;;;;9.3;100.0;100010;;;;
2022/04/24 04:35:00;;;;;;;10.2;9.3;;;;;;;9.3;100.0;100010;;;;
2022/04/24 04:36:00;;;;;;;10.2;9.3;;;;;;;9.3;100.0;100010;;;;
2022/04/24 04:37:00;;;;;;;10.2;9.3;;;;;;;9.3;100.0;100010;;;;
2022/04/24 04:38:00;;;;;;;10.2;9.3;;;;;;;9.2;100.0;100010;;;;
2022/04/24 04:39:00;;;;;;;10.2;9.3;;;;;;;9.2;100.0;100010;;;;
2022/04/24 04:40:00;;;;;;;10.2;9.3;;;;;;;9.3;100.0;100010;;;;
2022/04/24 04:41:00;;;;;;;10.2;9.3;;;;;;;9.3;100.0;100010;;;;
2022/04/24 04:42:00;;;;;;;10.2;9.3;;;;;;;9.2;100.0;100020;;;;
2022/04/24 04:43:00;;;;;;;10.2;9.3;;;;;;;9.2;100.0;100020;;;;
2022/04/24 04:44:00;;;;;;;10.2;9.3;;;;;;;9.2;100.0;100020;;;;
2022/04/24 04:45:00;;;;;;;10.2;9.3;;;;;;;9.2;100.0;100020;;;;
2022/04/24 04:46:00;;;;;;;10.2;9.3;;;;;;;9.2;100.0;100020;;;;
2022/04/24 04:47:00;;;;;;;9.6;8.8;;;;;;;9.2;100.0;100020;;;;
2022/04/24 04:48:00;;;;;;;9.6;8.8;;;;;;;9.3;100.0;100020;;;;
2022/04/24 04:49:00;;;;;;;9.6;8.8;;;;;;;9.3;100.0;100020;;;;
2022/04/24 04:50:06;;;;;;;9.6;8.8;;;;;;;9.4;100.0;100030;;;;
2022/04/24 04:51:00;;;;;;;9.6;8.8;;;;;;;9.4;100.0;100030;;;;
2022/04/24 04:52:00;;;;;;;9.6;8.8;;;;;;;9.3;100.0;100030;;;;
2022/04/24 04:53:00;;;;;;;9.6;8.8;;;;;;;9.3;100.0;100030;;;;
2022/04/24 04:54:00;;;;;;;9.6;8.8;;;;;;;9.4;100.0;100030;;;;
2022/04/24 04:55:00;;;;;;;9.6;8.8;;;;;;;9.4;100.0;100030;;;;
2022/04/24 04:56:00;;;;;;;9.6;8.8;;;;;;;9.3;100.0;100030;;;;
2022/04/24 04:57:00;;;;;;;9.6;8.8;;;;;;;9.3;100.0;100030;;;;
2022/04/24 04:58:00;;;;;;;9.6;8.8;;;;;;;9.3;100.0;100040;;;;
2022/04/24 04:59:00;;;;;;;9.6;8.8;;;;;;;9.3;100.0;100040;;;;
2022/04/24 05:00:00;;;;;;;9.6;8.8;;;;;;;9.3;100.0;100030;;;;
2022/04/24 05:01:00;;;;;;;9.6;8.8;;;;;;;9.3;100.0;100030;;;;
2022/04/24 05:02:06;;;;;;;9.6;8.8;;;;;;;9.3;100.0;100040;;;;
2022/04/24 05:03:00;;;;;;;9.6;8.8;;;;;;;9.3;100.0;100040;;;;
2022/04/24 05:04:00;;;;;;;9.6;8.8;;;;;;;9.3;100.0;100040;;;;
2022/04/24 05:05:00;;;;;;;9.6;8.8;;;;;;;9.3;100.0;100040;;;;
2022/04/24 05:06:00;;;;;;;9.6;8.8;;;;;;;9.2;100.0;100040;;;;
2022/04/24 05:07:00;;;;;;;8.9;8.1;;;;;;;9.2;100.0;100040;;;;
2022/04/24 05:08:00;;;;;;;8.9;8.1;;;;;;;9.1;100.0;100040;;;;
2022/04/24 05:09:00;;;;;;;8.9;8.1;;;;;;;9.1;100.0;100040;;;;
2022/04/24 05:10:00;;;;;;;8.9;8.1;;;;;;;9.2;100.0;100040;;;;
2022/04/24 05:11:01;;;;;;;8.9;8.1;;;;;;;9.2;100.0;100040;;;;
2022/04/24 05:12:00;;;;;;;8.9;8.1;;;;;;;9.3;100.0;100050;;;;
2022/04/24 05:13:00;;;;;;;8.9;8.1;;;;;;;9.3;100.0;100050;;;;
2022/04/24 05:14:06;;;;;;;8.9;8.1;;;;;;;9.3;100.0;100050;;;;
2022/04/24 05:15:01;;;;;;;8.9;8.1;;;;;;;9.3;100.0;100050;;;;
2022/04/24 05:16:00;;;;;;;8.9;8.1;;;;;;;9.2;100.0;100060;;;;
2022/04/24 05:17:00;;;;;;;8.9;8.1;;;;;;;9.2;100.0;100060;;;;
2022/04/24 05:18:00;;;;;;;8.9;8.1;;;;;;;9.2;100.0;100050;;;;
2022/04/24 05:19:00;;;;;;;8.9;8.1;;;;;;;9.2;100.0;100050;;;;
2022/04/24 05:20:00;;;;;;;8.9;8.1;;;;;;;9.3;100.0;100060;;;;
2022/04/24 05:21:02;;;;;;;8.9;8.1;;;;;;;9.3;100.0;100060;;;;
2022/04/24 05:22:00;;;;;;;8.9;8.1;;;;;;;9.3;100.0;100060;;;;
2022/04/24 05:23:07;;;;;;;8.9;8.1;;;;;;;9.3;100.0;100060;;;;
2022/04/24 05:24:00;;;;;;;8.9;8.1;;;;;;;9.4;100.0;100060;;;;
2022/04/24 05:25:00;;;;;;;8.9;8.1;;;;;;;9.4;100.0;100060;;;;
2022/04/24 05:26:00;;;;;;;8.6;7.8;;;;;;;9.2;100.0;100070;;;;
2022/04/24 05:27:01;;;;;;;8.6;7.8;;;;;;;9.2;100.0;100070;;;;
2022/04/24 05:28:00;;;;;;;8.6;7.8;;;;;;;9.3;100.0;100070;;;;
2022/04/24 05:29:00;;;;;;;8.6;7.8;;;;;;;9.3;100.0;100070;;;;
2022/04/24 05:30:00;;;;;;;8.6;7.8;;;;;;;9.2;100.0;100070;;;;
2022/04/24 05:31:00;;;;;;;8.6;7.8;;;;;;;9.2;100.0;100070;;;;
2022/04/24 05:32:00;;;;;;;8.6;7.8;;;;;;;9.2;100.0;100080;;;;
2022/04/24 05:33:00;;;;;;;8.6;7.8;;;;;;;9.2;100.0;100080;;;;
2022/04/24 05:34:00;;;;;;;8.6;7.8;;;;;;;9.2;100.0;100070;;;;
2022/04/24 05:35:00;;;;;;;8.6;7.8;;;;;;;9.2;100.0;100070;;;;
2022/04/24 05:36:02;;;;;;;8.6;7.8;;;;;;;9.2;100.0;100070;;;;
2022/04/24 05:37:00;;;;;;;8.6;7.8;;;;;;;9.2;100.0;100070;;;;
2022/04/24 05:38:00;;;;;;;8.6;7.8;;;;;;;9.4;100.0;100070;;;;
2022/04/24 05:39:00;;;;;;;8.6;7.8;;;;;;;9.4;100.0;100070;;;;
2022/04/24 05:40:00;;;;;;;8.6;7.8;;;;;;;9.3;100.0;100070;;;;
2022/04/24 05:41:00;;;;;;;8.6;7.8;;;;;;;9.3;100.0;100070;;;;
2022/04/24 05:42:00;;;;;;;8.6;7.8;;;;;;;9.4;100.0;100070;;;;
2022/04/24 05:43:00;;;;;;;8.6;7.8;;;;;;;9.4;100.0;100070;;;;
2022/04/24 05:44:00;;;;;;;8.6;7.8;;;;;;;9.5;100.0;100070;;;;
2022/04/24 05:45:00;;;;;;;8.6;7.8;;;;;;;9.5;100.0;100070;;;;
2022/04/24 05:46:00;;;;;;;8.6;7.8;;;;;;;9.5;100.0;100070;;;;
2022/04/24 05:47:00;;;;;;;8.6;7.8;;;;;;;9.5;100.0;100070;;;;
2022/04/24 05:48:00;;;;;;;8.6;7.8;;;;;;;9.5;100.0;100070;;;;
2022/04/24 05:49:02;;;;;;;8.6;7.8;;;;;;;9.5;100.0;100070;;;;
2022/04/24 05:50:00;;;;;;;8.6;7.8;;;;;;;9.6;100.0;100080;;;;
2022/04/24 05:51:00;;;;;;;8.6;7.8;;;;;;;9.6;100.0;100080;;;;
2022/04/24 05:52:00;;;;;;;8.6;7.8;;;;;;;9.7;100.0;100080;;;;
2022/04/24 05:53:00;;;;;;;8.6;7.8;;;;;;;9.7;100.0;100080;;;;
2022/04/24 05:54:00;;;;;;;8.6;7.8;;;;;;;9.6;100.0;100070;;;;
2022/04/24 05:55:00;;;;;;;8.6;7.8;;;;;;;9.6;100.0;100070;;;;
2022/04/24 05:56:00;;;;;;;8.6;7.8;;;;;;;9.6;100.0;100070;;;;
2022/04/24 05:57:00;;;;;;;8.6;7.8;;;;;;;9.6;100.0;100070;;;;
2022/04/24 05:58:00;;;;;;;8.6;7.8;;;;;;;9.7;100.0;100080;;;;
2022/04/24 05:59:00;;;;;;;8.6;7.8;;;;;;;9.7;100.0;100080;;;;
2022/04/24 06:00:00;;;;;;;8.6;7.8;;;;;;;9.7;100.0;100090;;;;
2022/04/24 06:01:00;;;;;;;8.6;7.8;;;;;;;9.7;100.0;100090;;;;
2022/04/24 06:02:00;;;;;;;8.6;7.8;;;;;;;9.8;100.0;100080;;;;
2022/04/24 06:03:00;;;;;;;8.6;7.8;;;;;;;9.8;100.0;100080;;;;
2022/04/24 06:04:00;;;;;;;8.6;7.8;;;;;;;9.6;100.0;100080;;;;
2022/04/24 06:05:00;;;;;;;8.6;7.8;;;;;;;9.6;100.0;100080;;;;
2022/04/24 06:06:00;;;;;;;8.0;7.3;;;;;;;9.7;100.0;100090;;;;
2022/04/24 06:07:00;;;;;;;8.0;7.3;;;;;;;9.7;100.0;100090;;;;
2022/04/24 06:08:00;;;;;;;8.0;7.3;;;;;;;9.8;100.0;100080;;;;
2022/04/24 06:09:00;;;;;;;8.0;7.3;;;;;;;9.8;100.0;100080;;;;
2022/04/24 06:10:00;;;;;;;8.0;7.3;;;;;;;9.7;100.0;100080;;;;
2022/04/24 06:11:00;;;;;;;8.0;7.3;;;;;;;9.7;100.0;100080;;;;
2022/04/24 06:12:01;;;;;;;8.0;7.3;;;;;;;10.0;100.0;100090;;;;
2022/04/24 06:13:00;;;;;;;8.0;7.3;;;;;;;10.0;100.0;100090;;;;
2022/04/24 06:14:00;;;;;;;8.0;7.3;;;;;;;9.9;100.0;100090;;;;
2022/04/24 06:15:02;;;;;;;8.0;7.3;;;;;;;9.9;100.0;100090;;;;
2022/04/24 06:16:00;;;;;;;8.0;7.3;;;;;;;9.9;100.0;100090;;;;
2022/04/24 06:17:00;;;;;;;8.0;7.3;;;;;;;9.9;100.0;100090;;;;
2022/04/24 06:18:00;;;;;;;8.0;7.3;;;;;;;9.9;100.0;100090;;;;
2022/04/24 06:19:00;;;;;;;8.0;7.3;;;;;;;9.9;100.0;100090;;;;
2022/04/24 06:20:00;;;;;;;8.0;7.3;;;;;;;10.0;100.0;100100;;;;
2022/04/24 06:21:00;;;;;;;8.0;7.3;;;;;;;10.0;100.0;100100;;;;
2022/04/24 06:22:00;;;;;;;8.0;7.3;;;;;;;10.1;100.0;100090;;;;
2022/04/24 06:23:00;;;;;;;8.0;7.3;;;;;;;10.1;100.0;100090;;;;
2022/04/24 06:24:00;;;;;;;8.0;7.3;;;;;;;10.1;100.0;100090;;;;
2022/04/24 06:25:00;;;;;;;8.0;7.3;;;;;;;10.1;100.0;100090;;;;
2022/04/24 06:26:00;;;;;;;8.1;7.4;;;;;;;10.2;100.0;100090;;;;
2022/04/24 06:27:00;;;;;;;8.1;7.4;;;;;;;10.2;100.0;100090;;;;